Time;durP1;ratioP1;P1;durP2;ratioP2;P2;SDS_P1;SDS_P2;PMS_P1;PMS_P2;Temp;Humidity;BMP_temperature;BMP_pressure;BME280_temperature;BME280_humidity;BME280_pressure;Samples;Min_cycle;Max_cycle;Signal;HPM_P1;HPM_P2
2022/05/14 00:01:08;;;;;;;3.58;1.20;;;11.90;99.90;;;;;;5055567;28;20037;-69
2022/05/14 00:03:34;;;;;;;1.73;0.93;;;11.80;99.90;;;;;;5057869;28;20509;-69
2022/05/14 00:06:03;;;;;;;2.55;1.20;;;11.80;99.90;;;;;;5038255;28;20048;-69
2022/05/14 00:08:30;;;;;;;0.95;0.70;;;11.80;99.90;;;;;;5054757;28;20048;-69
2022/05/14 00:13:41;;;;;;;1.88;0.88;;;11.70;99.90;;;;;;5054336;28;20072;-69
2022/05/14 00:16:08;;;;;;;1.67;0.90;;;11.70;99.90;;;;;;5051763;28;20040;-69
2022/05/14 00:18:34;;;;;;;2.35;0.80;;;11.70;99.90;;;;;;5053188;28;20561;-69
2022/05/14 00:21:00;;;;;;;2.30;0.80;;;11.70;99.90;;;;;;5057740;28;20086;-69
2022/05/14 00:23:27;;;;;;;1.33;0.75;;;11.70;99.90;;;;;;5051618;28;20036;-69
2022/05/14 00:25:53;;;;;;;2.38;0.95;;;11.70;99.90;;;;;;5052752;28;20047;-69
2022/05/14 00:28:18;;;;;;;1.67;0.85;;;11.60;99.90;;;;;;5053496;28;20037;-69
2022/05/14 00:30:44;;;;;;;1.60;0.90;;;11.60;99.90;;;;;;5059973;28;20044;-69
2022/05/14 00:33:10;;;;;;;1.60;0.90;;;11.60;99.90;;;;;;5056025;28;21189;-69
2022/05/14 00:35:36;;;;;;;1.58;1.00;;;11.60;99.90;;;;;;5033277;28;20047;-69
2022/05/14 00:38:03;;;;;;;5.07;1.17;;;11.60;99.90;;;;;;5052198;28;20024;-69
2022/05/14 00:40:56;;;;;;;3.65;1.20;;;11.60;99.90;;;;;;5054481;28;20036;-69
2022/05/14 00:43:22;;;;;;;3.38;1.00;;;11.60;99.90;;;;;;5045287;28;20530;-69
2022/05/14 00:45:53;;;;;;;2.10;1.10;;;11.60;99.90;;;;;;5057224;28;20064;-69
2022/05/14 00:48:19;;;;;;;4.22;0.80;;;11.60;99.90;;;;;;5056878;28;20067;-69
2022/05/14 00:50:49;;;;;;;2.50;1.00;;;11.60;99.90;;;;;;5058176;28;20116;-69
2022/05/14 00:53:26;;;;;;;5.30;0.93;;;11.60;99.90;;;;;;5058193;28;20196;-69
2022/05/14 00:55:55;;;;;;;4.68;0.95;;;11.60;99.90;;;;;;5054104;28;20037;-69
2022/05/14 00:58:37;;;;;;;8.88;1.13;;;11.60;99.90;;;;;;5061608;28;20044;-68
2022/05/14 01:01:04;;;;;;;5.25;1.50;;;11.60;99.90;;;;;;5053702;28;20048;-68
2022/05/14 01:03:29;;;;;;;5.97;1.08;;;11.60;99.90;;;;;;5052780;28;20036;-69
2022/05/14 01:05:57;;;;;;;6.20;1.17;;;11.60;99.90;;;;;;5056645;28;20558;-69
2022/05/14 01:08:23;;;;;;;4.10;1.00;;;11.60;99.90;;;;;;5055099;28;20132;-69
2022/05/14 01:10:49;;;;;;;1.48;0.85;;;11.60;99.90;;;;;;5056038;28;20071;-69
2022/05/14 01:13:15;;;;;;;2.00;1.08;;;11.70;99.90;;;;;;5054988;28;20873;-69
2022/05/14 01:15:52;;;;;;;2.88;1.17;;;11.70;99.90;;;;;;5060258;28;20060;-68
2022/05/14 01:18:20;;;;;;;2.55;0.95;;;11.70;99.90;;;;;;5059834;28;20115;-68
2022/05/14 01:21:06;;;;;;;1.73;0.70;;;11.70;99.90;;;;;;5054974;28;20055;-69
2022/05/14 01:26:29;;;;;;;1.80;0.70;;;11.70;99.90;;;;;;5054855;28;20699;-69
2022/05/14 01:28:57;;;;;;;3.03;0.95;;;11.70;99.90;;;;;;5032899;28;20056;-69
2022/05/14 01:31:23;;;;;;;5.60;1.15;;;11.70;99.90;;;;;;5058541;28;20048;-69
2022/05/14 01:33:50;;;;;;;2.55;0.80;;;11.70;99.90;;;;;;5057719;28;20406;-68
2022/05/14 01:36:15;;;;;;;1.80;0.98;;;11.70;99.90;;;;;;5060088;28;20161;-68
2022/05/14 01:38:41;;;;;;;3.28;0.90;;;11.70;99.90;;;;;;5056049;28;20175;-69
2022/05/14 01:41:07;;;;;;;3.15;1.00;;;11.70;99.90;;;;;;5054340;28;20413;-69
2022/05/14 01:43:32;;;;;;;5.68;0.85;;;11.70;99.90;;;;;;5061824;28;20545;-69
2022/05/14 01:45:58;;;;;;;3.47;0.80;;;11.70;99.90;;;;;;5047896;28;20090;-68
2022/05/14 01:48:24;;;;;;;4.18;1.33;;;11.70;99.90;;;;;;5058756;28;20576;-69
2022/05/14 01:50:49;;;;;;;1.90;0.73;;;11.80;99.90;;;;;;5060924;28;20039;-69
2022/05/14 01:53:15;;;;;;;5.05;1.15;;;11.80;99.90;;;;;;5060930;28;20042;-69
2022/05/14 01:55:40;;;;;;;1.15;0.80;;;11.80;99.90;;;;;;5061687;28;20039;-69
2022/05/14 02:00:52;;;;;;;2.95;0.85;;;11.70;99.90;;;;;;5060714;28;20044;-68
2022/05/14 02:03:18;;;;;;;1.52;0.65;;;11.70;99.90;;;;;;5062858;28;20508;-69
2022/05/14 02:05:43;;;;;;;5.15;1.02;;;11.70;99.90;;;;;;5060424;28;20047;-69
2022/05/14 02:08:09;;;;;;;3.33;1.20;;;11.70;99.90;;;;;;5059180;28;20043;-69
2022/05/14 02:10:34;;;;;;;2.67;1.00;;;11.60;99.90;;;;;;5058833;28;20056;-69
2022/05/14 02:13:00;;;;;;;2.45;1.00;;;11.60;99.90;;;;;;5064172;28;20071;-69
2022/05/14 02:15:26;;;;;;;2.65;0.80;;;11.60;99.90;;;;;;5060021;28;20103;-68
2022/05/14 02:17:51;;;;;;;3.13;0.90;;;11.50;99.90;;;;;;5061639;28;20047;-69
2022/05/14 02:20:17;;;;;;;6.97;1.50;;;11.50;99.90;;;;;;5061631;28;20032;-68
2022/05/14 02:22:43;;;;;;;1.70;0.85;;;11.50;99.90;;;;;;5061701;28;20040;-69
2022/05/14 02:25:10;;;;;;;2.50;0.73;;;11.50;99.90;;;;;;5048556;28;20044;-68
2022/05/14 02:27:35;;;;;;;4.25;1.05;;;11.50;99.90;;;;;;5060587;28;20050;-69
2022/05/14 02:30:01;;;;;;;2.92;1.10;;;11.40;99.90;;;;;;5061947;28;20471;-69
2022/05/14 02:32:27;;;;;;;4.32;1.17;;;11.50;99.90;;;;;;5059676;28;20050;-68
2022/05/14 02:34:54;;;;;;;1.95;1.00;;;11.40;99.90;;;;;;5062167;28;20057;-69
2022/05/14 02:37:22;;;;;;;2.72;1.17;;;11.40;99.90;;;;;;5058398;28;20028;-69
2022/05/14 02:39:48;;;;;;;2.40;0.93;;;11.40;99.90;;;;;;5047520;28;20489;-69
2022/05/14 02:42:14;;;;;;;1.75;0.80;;;11.40;99.90;;;;;;5059619;28;20047;-69
2022/05/14 02:44:40;;;;;;;3.63;0.95;;;11.40;99.90;;;;;;5062148;28;20165;-69
2022/05/14 02:47:06;;;;;;;2.72;0.98;;;11.30;99.90;;;;;;5047975;28;20048;-69
2022/05/14 02:49:31;;;;;;;6.70;1.52;;;11.30;99.90;;;;;;5048761;28;20409;-68
2022/05/14 02:51:57;;;;;;;2.60;1.35;;;11.30;99.90;;;;;;5063236;28;20039;-68
2022/05/14 02:54:23;;;;;;;3.20;0.82;;;11.30;99.90;;;;;;5047499;28;20036;-69
2022/05/14 02:56:48;;;;;;;2.00;1.10;;;11.30;99.90;;;;;;5058874;28;20051;-69
2022/05/14 02:59:15;;;;;;;9.93;1.48;;;11.20;99.90;;;;;;5061801;28;20396;-69
2022/05/14 03:01:50;;;;;;;3.88;1.08;;;11.30;99.90;;;;;;5061709;28;20523;-69
2022/05/14 03:04:26;;;;;;;4.80;1.42;;;11.20;99.90;;;;;;5080105;28;20043;-68
2022/05/14 03:06:53;;;;;;;2.38;0.98;;;11.20;99.90;;;;;;5061922;28;20101;-68
2022/05/14 03:09:19;;;;;;;3.03;1.40;;;11.20;99.90;;;;;;5082783;28;20748;-69
2022/05/14 03:11:44;;;;;;;2.88;1.15;;;11.10;99.90;;;;;;5048209;28;20718;-69
2022/05/14 03:14:10;;;;;;;4.70;1.63;;;11.10;99.90;;;;;;5064501;28;20054;-68
2022/05/14 03:16:36;;;;;;;2.80;1.15;;;11.10;99.90;;;;;;5059735;28;20048;-68
2022/05/14 03:19:02;;;;;;;1.73;1.02;;;11.00;99.90;;;;;;5046134;28;20040;-69
2022/05/14 03:21:27;;;;;;;3.78;1.25;;;11.10;99.90;;;;;;5062944;28;20043;-68
2022/05/14 03:23:53;;;;;;;2.95;1.42;;;11.00;99.90;;;;;;5062435;28;20039;-68
2022/05/14 03:26:19;;;;;;;3.95;1.50;;;11.10;99.90;;;;;;5060065;28;20036;-69
2022/05/14 03:28:45;;;;;;;5.95;1.55;;;11.10;99.90;;;;;;5081502;28;20040;-69
2022/05/14 03:31:11;;;;;;;3.42;1.23;;;11.10;99.90;;;;;;5057102;28;20041;-69
2022/05/14 03:33:37;;;;;;;4.80;2.17;;;11.10;99.90;;;;;;5079971;28;20050;-69
2022/05/14 03:36:03;;;;;;;18.55;1.90;;;11.00;99.90;;;;;;5059183;28;20090;-69
2022/05/14 03:38:29;;;;;;;2.90;1.60;;;11.00;99.90;;;;;;5076933;28;20521;-69
2022/05/14 03:40:54;;;;;;;7.10;1.52;;;11.00;99.90;;;;;;5060820;28;20115;-69
2022/05/14 03:43:20;;;;;;;6.78;1.83;;;11.00;99.90;;;;;;5063394;28;20054;-69
2022/05/14 03:45:45;;;;;;;3.13;1.27;;;11.00;99.90;;;;;;5081348;28;20123;-69
2022/05/14 03:48:11;;;;;;;6.18;2.13;;;11.00;99.90;;;;;;5062641;28;20044;-69
2022/05/14 03:50:37;;;;;;;4.85;1.70;;;11.00;99.90;;;;;;5064530;28;20036;-69
2022/05/14 03:53:02;;;;;;;5.22;2.10;;;11.00;99.90;;;;;;5064237;28;20044;-69
2022/05/14 03:55:28;;;;;;;4.35;1.52;;;11.00;99.90;;;;;;5050442;28;20044;-69
2022/05/14 03:57:54;;;;;;;2.15;1.23;;;11.00;99.90;;;;;;5063627;28;20036;-69
2022/05/14 04:00:20;;;;;;;6.13;1.60;;;10.90;99.90;;;;;;5051499;28;20044;-69
2022/05/14 04:02:47;;;;;;;5.00;1.45;;;10.90;99.90;;;;;;5055261;28;20037;-68
2022/05/14 04:05:14;;;;;;;5.47;1.75;;;10.90;99.90;;;;;;5065435;28;20047;-68
2022/05/14 04:07:41;;;;;;;4.10;1.50;;;10.90;99.90;;;;;;5062953;28;20047;-69
2022/05/14 04:10:08;;;;;;;8.20;1.90;;;10.90;99.90;;;;;;5066851;28;20101;-68
2022/05/14 04:12:33;;;;;;;7.13;1.70;;;11.00;99.90;;;;;;5048430;28;20036;-68
2022/05/14 04:14:59;;;;;;;3.65;1.48;;;11.00;99.90;;;;;;5067177;28;20390;-68
2022/05/14 04:17:25;;;;;;;6.35;2.00;;;11.00;99.90;;;;;;5059153;28;20048;-68
2022/05/14 04:19:51;;;;;;;2.15;1.23;;;11.00;99.90;;;;;;5051099;28;20094;-69
2022/05/14 04:22:16;;;;;;;3.28;1.52;;;11.10;99.90;;;;;;5047692;28;20024;-68
2022/05/14 04:24:42;;;;;;;5.25;2.00;;;11.10;99.90;;;;;;5081911;28;20223;-69
2022/05/14 04:27:08;;;;;;;7.30;1.90;;;11.10;99.90;;;;;;5064219;28;21015;-69
2022/05/14 04:29:33;;;;;;;4.65;1.35;;;11.10;99.90;;;;;;5059482;28;20036;-69
2022/05/14 04:31:59;;;;;;;3.45;1.92;;;11.10;99.90;;;;;;5060148;28;20028;-69
2022/05/14 04:34:25;;;;;;;4.57;1.45;;;11.10;99.90;;;;;;5061466;28;20037;-68
2022/05/14 04:36:50;;;;;;;4.72;1.40;;;11.10;99.90;;;;;;5066488;28;20054;-68
2022/05/14 04:39:16;;;;;;;7.00;2.22;;;11.20;99.90;;;;;;5080569;28;20055;-69
2022/05/14 04:41:42;;;;;;;8.88;1.85;;;11.20;99.90;;;;;;5078783;28;20039;-69
2022/05/14 04:44:07;;;;;;;3.45;1.92;;;11.20;99.90;;;;;;5050585;28;20044;-69
2022/05/14 04:46:35;;;;;;;7.45;2.45;;;11.30;99.90;;;;;;5046210;28;20044;-69
2022/05/14 04:49:02;;;;;;;6.93;1.88;;;11.30;99.90;;;;;;5080068;28;20032;-69
2022/05/14 04:51:27;;;;;;;3.97;2.33;;;11.30;99.90;;;;;;5064268;28;20663;-68
2022/05/14 04:53:53;;;;;;;5.63;1.83;;;11.30;99.90;;;;;;5058015;28;20039;-69
2022/05/14 04:56:18;;;;;;;5.90;2.03;;;11.30;99.90;;;;;;5063962;28;20085;-68
2022/05/14 04:58:44;;;;;;;3.08;1.60;;;11.40;99.90;;;;;;5061225;28;20464;-68
2022/05/14 05:01:10;;;;;;;11.65;2.10;;;11.40;99.90;;;;;;5064006;28;20758;-68
2022/05/14 05:03:36;;;;;;;6.03;2.40;;;11.50;99.90;;;;;;5077557;28;20513;-68
2022/05/14 05:06:02;;;;;;;5.35;1.95;;;11.50;99.90;;;;;;5065359;28;20024;-69
2022/05/14 05:08:30;;;;;;;3.45;1.52;;;11.60;99.90;;;;;;5064042;28;20090;-68
2022/05/14 05:10:56;;;;;;;5.70;2.05;;;11.60;99.90;;;;;;5082320;28;20032;-69
2022/05/14 05:13:28;;;;;;;5.90;2.30;;;11.70;99.90;;;;;;5077595;28;20039;-69
2022/05/14 05:15:54;;;;;;;4.50;1.73;;;11.70;99.90;;;;;;5080820;28;20036;-69
2022/05/14 05:18:20;;;;;;;4.50;1.92;;;11.70;99.90;;;;;;5080535;28;20032;-69
2022/05/14 05:20:49;;;;;;;8.68;2.15;;;11.70;99.90;;;;;;5061709;28;20406;-68
2022/05/14 05:23:17;;;;;;;9.50;1.67;;;11.80;99.90;;;;;;5073774;28;20040;-68
2022/05/14 05:25:44;;;;;;;3.92;1.52;;;11.80;99.90;;;;;;5061685;28;20037;-69
2022/05/14 05:28:10;;;;;;;4.80;1.98;;;11.80;99.90;;;;;;5061373;28;20128;-69
2022/05/14 05:30:36;;;;;;;13.30;2.55;;;11.90;99.90;;;;;;5061030;28;20078;-69
2022/05/14 05:33:02;;;;;;;6.45;1.85;;;11.90;99.90;;;;;;5064057;28;20621;-69
2022/05/14 05:35:28;;;;;;;6.60;1.77;;;12.00;99.90;;;;;;5059575;28;20051;-68
2022/05/14 05:37:53;;;;;;;8.30;1.83;;;12.10;99.90;;;;;;5045974;28;20671;-68
2022/05/14 05:40:19;;;;;;;8.98;2.10;;;12.20;99.90;;;;;;5064603;28;20104;-68
2022/05/14 05:42:45;;;;;;;6.32;2.03;;;12.30;99.90;;;;;;5080587;28;20083;-69
2022/05/14 05:45:14;;;;;;;6.07;1.83;;;12.40;99.90;;;;;;5061726;28;20446;-68
2022/05/14 05:47:40;;;;;;;6.57;2.05;;;12.50;99.90;;;;;;5058946;28;20036;-68
2022/05/14 05:50:07;;;;;;;13.32;2.10;;;12.60;99.90;;;;;;5059109;28;20475;-69
2022/05/14 05:52:32;;;;;;;3.95;1.77;;;12.70;99.90;;;;;;5062718;28;20036;-69
2022/05/14 05:57:43;;;;;;;3.60;1.70;;;12.80;99.90;;;;;;5055673;28;20131;-69
2022/05/14 06:00:12;;;;;;;5.20;1.80;;;12.80;99.90;;;;;;5048146;28;20119;-69
2022/05/14 06:02:38;;;;;;;4.63;1.95;;;12.80;99.90;;;;;;5041773;28;20032;-68
2022/05/14 06:05:05;;;;;;;4.55;1.50;;;12.80;99.90;;;;;;5062572;28;20028;-69
2022/05/14 06:07:32;;;;;;;4.38;1.45;;;12.80;99.90;;;;;;5064189;28;20465;-69
2022/05/14 06:09:57;;;;;;;5.25;1.95;;;12.80;99.90;;;;;;5060008;28;20048;-69
2022/05/14 06:12:24;;;;;;;7.35;1.85;;;12.90;99.90;;;;;;5039833;28;20044;-69
2022/05/14 06:14:49;;;;;;;11.40;2.25;;;12.90;99.90;;;;;;5060156;28;20058;-69
2022/05/14 06:17:16;;;;;;;7.43;1.92;;;13.00;99.90;;;;;;5059679;28;20040;-69
2022/05/14 06:19:42;;;;;;;6.90;1.73;;;13.10;99.90;;;;;;5044104;28;20119;-69
2022/05/14 06:22:08;;;;;;;5.57;2.00;;;13.10;99.90;;;;;;5056603;28;20112;-69
2022/05/14 06:24:36;;;;;;;11.07;2.17;;;13.60;99.90;;;;;;5032674;28;20032;-69
2022/05/14 06:27:01;;;;;;;6.18;2.00;;;14.30;99.90;;;;;;5063537;28;20032;-69
2022/05/14 06:29:27;;;;;;;3.80;1.85;;;15.20;99.90;;;;;;5062799;28;20101;-69
2022/05/14 06:31:52;;;;;;;3.58;1.45;;;16.10;99.90;;;;;;5063008;28;20224;-69
2022/05/14 06:34:18;;;;;;;4.60;1.30;;;16.90;99.90;;;;;;5058411;28;20039;-69
2022/05/14 06:36:44;;;;;;;3.63;1.42;;;17.50;99.90;;;;;;5077441;28;20568;-69
2022/05/14 06:39:09;;;;;;;5.80;2.30;;;18.00;99.90;;;;;;5060394;28;20032;-69
2022/05/14 06:41:35;;;;;;;6.10;1.90;;;18.30;99.90;;;;;;5081559;28;20213;-68
2022/05/14 06:44:00;;;;;;;8.23;1.60;;;18.30;99.90;;;;;;5042292;28;20040;-69
2022/05/14 06:46:26;;;;;;;8.02;1.80;;;17.80;99.90;;;;;;5078778;28;20036;-68
2022/05/14 06:48:52;;;;;;;9.48;1.77;;;17.30;99.90;;;;;;5063240;28;20040;-68
2022/05/14 06:51:22;;;;;;;2.25;1.30;;;16.90;99.90;;;;;;5060547;28;20032;-68
2022/05/14 06:53:49;;;;;;;8.15;1.38;;;16.60;99.90;;;;;;5056106;28;20136;-68
2022/05/14 06:56:17;;;;;;;4.38;1.52;;;16.30;99.90;;;;;;5061005;28;20412;-68
2022/05/14 06:58:48;;;;;;;9.93;1.40;;;16.00;99.90;;;;;;5046633;28;20051;-69
2022/05/14 07:01:16;;;;;;;3.65;1.55;;;15.80;99.90;;;;;;5058234;28;20048;-69
2022/05/14 07:06:38;;;;;;;4.05;1.38;;;15.60;99.90;;;;;;5075052;28;20044;-68
2022/05/14 07:09:12;;;;;;;2.53;1.15;;;15.40;99.90;;;;;;5057749;28;20051;-68
2022/05/14 07:11:41;;;;;;;3.25;1.30;;;15.30;99.90;;;;;;5061244;28;20032;-68
2022/05/14 07:14:08;;;;;;;5.07;0.95;;;15.20;99.90;;;;;;5045200;28;20047;-68
2022/05/14 07:16:34;;;;;;;4.00;1.05;;;15.10;99.90;;;;;;5079983;28;20054;-68
2022/05/14 07:18:59;;;;;;;4.93;1.50;;;15.10;99.90;;;;;;5058373;28;20044;-68
2022/05/14 07:21:25;;;;;;;4.13;1.42;;;15.10;99.90;;;;;;5067379;28;20143;-68
2022/05/14 07:23:50;;;;;;;4.22;0.95;;;15.10;99.90;;;;;;5066077;28;20107;-68
2022/05/14 07:26:16;;;;;;;5.53;1.15;;;15.10;99.90;;;;;;5080523;28;20524;-68
2022/05/14 07:28:42;;;;;;;6.25;1.10;;;15.10;99.90;;;;;;5078413;28;20040;-68
2022/05/14 07:31:08;;;;;;;6.72;1.00;;;15.10;99.90;;;;;;5054537;28;20039;-68
2022/05/14 07:33:34;;;;;;;2.92;1.00;;;15.10;99.90;;;;;;5056532;28;20055;-68
2022/05/14 07:36:14;;;;;;;4.53;0.90;;;15.10;99.90;;;;;;5072007;28;20472;-68
2022/05/14 07:38:42;;;;;;;6.07;1.02;;;15.10;99.90;;;;;;5064485;28;20036;-68
2022/05/14 07:41:08;;;;;;;6.90;0.90;;;15.20;99.90;;;;;;5092296;28;20530;-68
2022/05/14 07:43:37;;;;;;;1.75;0.90;;;15.20;99.90;;;;;;5073973;28;20410;-68
2022/05/14 07:46:09;;;;;;;4.93;1.02;;;15.20;99.90;;;;;;5072294;28;20040;-68
2022/05/14 07:48:38;;;;;;;1.27;0.70;;;15.20;99.90;;;;;;5090871;28;20600;-69
2022/05/14 07:51:06;;;;;;;6.07;1.45;;;15.20;99.90;;;;;;5057031;28;20042;-68
2022/05/14 07:53:32;;;;;;;3.83;1.25;;;15.20;99.90;;;;;;5056324;28;20040;-68
2022/05/14 07:55:59;;;;;;;5.47;1.52;;;15.30;99.90;;;;;;5073922;28;20046;-68
2022/05/14 07:58:25;;;;;;;4.07;1.10;;;15.30;99.90;;;;;;5072121;28;20040;-68
2022/05/14 08:00:51;;;;;;;2.95;0.68;;;15.40;99.90;;;;;;5072918;28;20040;-68
2022/05/14 08:03:16;;;;;;;5.72;1.38;;;15.40;99.90;;;;;;5073226;28;20404;-68
2022/05/14 08:05:43;;;;;;;3.80;1.23;;;15.40;99.90;;;;;;5073252;28;20344;-68
2022/05/14 08:08:08;;;;;;;5.97;1.40;;;15.50;99.90;;;;;;5066694;28;20491;-68
2022/05/14 08:10:36;;;;;;;5.57;0.95;;;15.60;99.90;;;;;;5073369;28;20066;-68
2022/05/14 08:13:02;;;;;;;4.97;0.88;;;15.70;99.90;;;;;;5089498;28;20040;-68
2022/05/14 08:15:28;;;;;;;2.17;0.90;;;15.70;99.90;;;;;;5056037;28;20526;-68
2022/05/14 08:17:54;;;;;;;2.08;0.70;;;15.80;99.90;;;;;;5056385;28;20047;-68
2022/05/14 08:20:21;;;;;;;3.15;0.95;;;15.90;99.90;;;;;;5059748;28;20044;-68
2022/05/14 08:25:31;;;;;;;6.43;1.00;;;15.90;99.90;;;;;;5070819;28;20045;-68
2022/05/14 08:27:57;;;;;;;6.72;0.90;;;16.00;99.90;;;;;;5051862;28;20219;-68
2022/05/14 08:30:26;;;;;;;4.43;1.63;;;16.00;98.80;;;;;;5057057;28;20036;-68
2022/05/14 08:32:52;;;;;;;4.38;0.98;;;16.00;98.10;;;;;;5065760;28;20044;-68
2022/05/14 08:35:19;;;;;;;3.00;1.00;;;16.00;97.90;;;;;;5054524;28;20520;-68
2022/05/14 08:37:46;;;;;;;5.03;1.38;;;15.90;98.10;;;;;;5053973;28;20032;-68
2022/05/14 08:40:19;;;;;;;6.03;1.20;;;16.00;97.90;;;;;;5055322;28;20032;-68
2022/05/14 08:42:51;;;;;;;5.35;0.73;;;16.00;98.00;;;;;;5056366;28;20044;-68
2022/05/14 08:45:19;;;;;;;2.22;1.10;;;16.00;97.70;;;;;;5072444;28;20491;-68
2022/05/14 08:47:54;;;;;;;2.83;0.60;;;16.00;97.50;;;;;;5070993;28;20305;-68
2022/05/14 08:50:22;;;;;;;;;;;15.90;97.30;;;;;;5038994;28;20569;-68
2022/05/14 08:52:48;;;;;;;5.63;0.93;;;15.70;94.70;;;;;;5051723;28;19916;-68
2022/05/14 08:55:16;;;;;;;6.18;1.40;;;15.70;98.40;;;;;;5052694;28;20051;-68
2022/05/14 08:58:06;;;;;;;3.40;0.90;;;15.80;98.80;;;;;;5052541;28;20054;-68
2022/05/14 09:00:32;;;;;;;3.83;1.17;;;15.90;98.70;;;;;;5062674;28;20028;-68
2022/05/14 09:02:57;;;;;;;3.95;0.90;;;16.00;97.80;;;;;;5073623;28;20409;-70
2022/05/14 09:05:26;;;;;;;7.45;1.10;;;16.10;98.20;;;;;;5048184;28;20046;-68
2022/05/14 09:07:52;;;;;;;5.97;0.90;;;16.20;98.00;;;;;;5062356;28;20044;-67
2022/05/14 09:10:28;;;;;;;2.22;0.75;;;16.30;97.30;;;;;;5064412;28;20043;-68
2022/05/14 09:13:08;;;;;;;1.60;0.73;;;16.20;96.60;;;;;;5046975;28;20048;-68
2022/05/14 09:15:40;;;;;;;6.13;1.20;;;16.20;97.40;;;;;;5082513;28;20142;-68
2022/05/14 09:18:10;;;;;;;5.03;1.00;;;16.30;98.10;;;;;;5058848;28;20048;-68
2022/05/14 09:20:44;;;;;;;5.15;0.90;;;16.40;97.20;;;;;;5070876;28;20040;-68
2022/05/14 09:23:10;;;;;;;3.83;1.15;;;16.40;95.30;;;;;;5047249;28;20048;-68
2022/05/14 09:25:40;;;;;;;2.88;1.00;;;16.50;96.30;;;;;;5065498;28;20044;-68
2022/05/14 09:28:22;;;;;;;3.70;0.95;;;16.50;96.00;;;;;;5070631;28;20126;-68
2022/05/14 09:30:57;;;;;;;5.75;1.58;;;16.50;96.50;;;;;;5055791;28;20040;-68
2022/05/14 09:33:40;;;;;;;6.60;2.00;;;16.60;96.30;;;;;;5056564;28;20608;-68
2022/05/14 09:36:14;;;;;;;4.25;1.40;;;16.60;96.60;;;;;;5058527;28;20031;-68
2022/05/14 09:38:42;;;;;;;2.42;0.82;;;16.70;96.30;;;;;;5053432;28;20098;-68
2022/05/14 09:41:19;;;;;;;12.23;1.48;;;16.70;96.60;;;;;;5037479;28;20036;-68
2022/05/14 09:43:45;;;;;;;2.92;1.10;;;16.80;96.10;;;;;;5056435;28;20118;-68
2022/05/14 09:46:25;;;;;;;3.50;1.55;;;17.00;96.40;;;;;;5058765;28;20082;-68
2022/05/14 09:48:59;;;;;;;5.05;1.20;;;17.10;95.40;;;;;;5058719;28;20040;-68
2022/05/14 09:51:51;;;;;;;4.50;1.05;;;17.30;95.30;;;;;;5053322;28;20049;-68
2022/05/14 09:54:26;;;;;;;4.15;1.00;;;17.30;91.30;;;;;;5056654;28;20044;-68
2022/05/14 09:57:08;;;;;;;5.40;1.00;;;17.20;93.60;;;;;;5075917;28;20048;-68
2022/05/14 09:59:52;;;;;;;2.90;1.23;;;17.10;93.70;;;;;;5069254;28;20979;-67
2022/05/14 10:02:47;;;;;;;3.90;1.25;;;16.90;93.20;;;;;;5059118;28;20033;-67
2022/05/14 10:05:37;;;;;;;9.68;1.40;;;16.90;94.10;;;;;;5036771;28;20070;-68
2022/05/14 10:08:39;;;;;;;7.85;1.02;;;16.90;95.50;;;;;;5053911;28;20071;-68
2022/05/14 10:11:32;;;;;;;1.92;0.70;;;17.00;91.70;;;;;;5029216;28;20409;-68
2022/05/14 10:14:14;;;;;;;6.07;1.23;;;17.00;91.70;;;;;;5029298;28;20055;-68
2022/05/14 10:17:12;;;;;;;7.93;1.02;;;17.00;92.90;;;;;;5051237;28;20512;-68
2022/05/14 10:20:06;;;;;;;6.28;1.10;;;17.00;93.90;;;;;;5044046;28;20048;-68
2022/05/14 10:28:52;;;;;;;2.38;0.70;;;17.10;93.50;;;;;;5051911;28;20548;-68
2022/05/14 10:31:29;;;;;;;3.92;0.88;;;17.20;92.10;;;;;;5049545;28;20044;-69
2022/05/14 10:34:01;;;;;;;4.82;1.13;;;17.30;90.60;;;;;;5050512;28;20094;-68
2022/05/14 10:36:47;;;;;;;7.07;1.00;;;17.30;91.70;;;;;;5055973;28;20044;-67
2022/05/14 10:39:24;;;;;;;3.00;1.48;;;17.30;91.80;;;;;;5055278;28;20044;-68
2022/05/14 10:42:03;;;;;;;2.83;0.65;;;17.30;87.10;;;;;;5059407;28;20044;-68
2022/05/14 10:44:47;;;;;;;2.28;0.60;;;17.30;90.90;;;;;;5066616;28;20254;-68
2022/05/14 10:47:15;;;;;;;2.75;0.95;;;17.30;91.10;;;;;;5066844;28;20497;-67
2022/05/14 10:49:58;;;;;;;1.48;0.73;;;17.30;92.40;;;;;;5048315;28;20046;-67
2022/05/14 10:52:23;;;;;;;7.55;2.17;;;17.30;91.70;;;;;;5058293;28;20099;-67
2022/05/14 10:54:50;;;;;;;3.13;0.68;;;17.40;92.20;;;;;;5063127;28;20397;-68
2022/05/14 10:57:15;;;;;;;4.60;1.33;;;17.40;91.90;;;;;;5069573;28;20047;-68
2022/05/14 10:59:52;;;;;;;3.30;0.82;;;17.50;92.00;;;;;;5053661;28;20039;-67
2022/05/14 11:02:28;;;;;;;5.10;1.00;;;17.60;90.70;;;;;;5063279;28;20084;-67
2022/05/14 11:04:54;;;;;;;8.60;1.42;;;17.70;90.00;;;;;;5050341;28;20374;-68
2022/05/14 11:07:36;;;;;;;7.80;1.20;;;17.70;90.40;;;;;;5063527;28;20511;-68
2022/05/14 11:10:09;;;;;;;3.42;1.58;;;17.70;81.30;;;;;;5074364;28;20043;-67
2022/05/14 11:12:37;;;;;;;5.18;0.93;;;17.70;87.10;;;;;;5048903;28;20081;-68
2022/05/14 11:15:04;;;;;;;1.83;0.47;;;17.70;88.70;;;;;;5056232;28;20123;-68
2022/05/14 11:17:40;;;;;;;3.42;0.90;;;17.70;87.50;;;;;;5046171;28;20052;-67
2022/05/14 11:20:08;;;;;;;5.63;1.02;;;17.60;81.40;;;;;;5037500;28;20094;-67
2022/05/14 11:23:02;;;;;;;2.97;0.70;;;17.60;87.90;;;;;;5056679;28;20045;-67
2022/05/14 11:25:28;;;;;;;4.63;0.82;;;17.60;78.70;;;;;;5057042;28;21226;-68
2022/05/14 11:28:02;;;;;;;2.58;0.70;;;17.60;88.30;;;;;;5051958;28;20483;-69
2022/05/14 11:30:42;;;;;;;2.38;0.70;;;17.50;86.10;;;;;;5047067;28;20045;-69
2022/05/14 11:33:21;;;;;;;2.35;0.90;;;17.50;84.80;;;;;;5053751;28;20051;-70
2022/05/14 11:35:49;;;;;;;2.88;0.75;;;17.60;85.40;;;;;;5042171;28;20119;-67
2022/05/14 11:38:24;;;;;;;3.95;0.85;;;17.70;87.60;;;;;;5045685;28;20311;-68
2022/05/14 11:41:06;;;;;;;2.65;0.85;;;17.80;81.00;;;;;;5046092;28;20501;-68
2022/05/14 11:43:35;;;;;;;8.27;1.20;;;17.90;75.20;;;;;;5062670;28;20521;-68
2022/05/14 11:46:09;;;;;;;3.05;0.82;;;18.00;84.30;;;;;;5063931;28;20500;-68
2022/05/14 11:49:20;;;;;;;4.85;0.82;;;18.10;83.40;;;;;;5049465;28;20049;-68
2022/05/14 11:52:07;;;;;;;5.22;1.30;;;18.30;76.40;;;;;;5053844;28;20049;-68
2022/05/14 11:55:05;;;;;;;6.78;1.00;;;18.50;72.70;;;;;;5058511;28;20585;-68
2022/05/14 11:57:35;;;;;;;4.75;0.98;;;18.50;81.00;;;;;;5013202;28;20087;-68
2022/05/14 12:00:08;;;;;;;3.28;0.70;;;18.40;77.80;;;;;;5050271;28;20446;-68
2022/05/14 12:02:54;;;;;;;3.13;0.90;;;18.40;76.80;;;;;;5058749;28;20073;-68
2022/05/14 12:05:24;;;;;;;1.38;0.63;;;18.40;74.20;;;;;;5065942;28;20116;-68
2022/05/14 12:08:18;;;;;;;3.00;0.95;;;18.30;79.30;;;;;;5050606;28;20127;-68
2022/05/14 12:10:43;;;;;;;3.28;0.80;;;18.20;74.40;;;;;;5049170;28;20047;-68
2022/05/14 12:13:38;;;;;;;5.07;1.33;;;18.10;80.70;;;;;;5040285;28;20044;-68
2022/05/14 12:16:04;;;;;;;2.45;0.63;;;18.20;74.40;;;;;;5030710;28;20060;-68
2022/05/14 12:18:31;;;;;;;5.13;0.77;;;18.20;80.30;;;;;;5047025;28;20037;-68
2022/05/14 12:21:03;;;;;;;2.38;0.70;;;18.30;80.80;;;;;;5037004;28;20505;-68
2022/05/14 12:23:47;;;;;;;2.50;0.65;;;18.40;79.10;;;;;;5040365;28;20041;-68
2022/05/14 12:26:23;;;;;;;3.13;1.02;;;18.50;67.80;;;;;;5036816;28;20264;-68
2022/05/14 12:28:50;;;;;;;2.72;0.85;;;18.60;75.10;;;;;;5035590;28;20049;-68
2022/05/14 12:34:19;;;;;;;3.78;0.80;;;18.90;73.40;;;;;;5030704;28;20034;-68
2022/05/14 12:36:53;;;;;;;5.63;0.90;;;19.00;77.40;;;;;;5045884;28;20469;-68
2022/05/14 12:39:28;;;;;;;3.17;1.00;;;19.00;75.60;;;;;;5034281;28;20052;-68
2022/05/14 12:41:59;;;;;;;5.07;1.13;;;18.90;78.50;;;;;;5040912;28;21525;-68
2022/05/14 12:44:28;;;;;;;2.45;0.60;;;19.00;77.10;;;;;;5043334;28;20055;-68
2022/05/14 12:46:56;;;;;;;6.57;0.90;;;18.90;78.20;;;;;;5034811;28;20045;-68
2022/05/14 12:49:45;;;;;;;3.60;0.80;;;18.80;77.80;;;;;;5034450;28;20046;-68
2022/05/14 12:52:13;;;;;;;3.85;0.93;;;18.80;74.50;;;;;;5038554;28;20579;-68
2022/05/14 12:54:55;;;;;;;5.65;1.05;;;18.70;77.80;;;;;;5026386;28;20047;-68
2022/05/14 12:57:22;;;;;;;3.10;0.80;;;18.70;70.30;;;;;;5042887;28;20041;-68
2022/05/14 12:59:48;;;;;;;3.60;1.13;;;18.70;78.40;;;;;;5034243;28;20033;-68
2022/05/14 13:02:33;;;;;;;3.92;1.10;;;18.70;77.90;;;;;;5042815;28;20056;-68
2022/05/14 13:05:09;;;;;;;5.10;0.90;;;18.70;71.60;;;;;;5031604;28;20041;-68
2022/05/14 13:07:43;;;;;;;3.58;0.77;;;18.70;73.60;;;;;;5023895;28;20472;-68
2022/05/14 13:10:09;;;;;;;2.97;0.93;;;18.70;73.40;;;;;;5042124;28;20115;-72
2022/05/14 13:12:35;;;;;;;3.80;0.70;;;18.70;76.80;;;;;;5039062;28;20116;-68
2022/05/14 13:15:05;;;;;;;4.20;1.02;;;18.60;76.00;;;;;;5064027;28;20249;-68
2022/05/14 13:17:37;;;;;;;3.65;1.05;;;18.60;75.00;;;;;;5042641;28;20040;-68
2022/05/14 13:20:15;;;;;;;1.88;0.63;;;18.60;73.80;;;;;;5058978;28;20024;-68
2022/05/14 13:22:43;;;;;;;6.60;1.10;;;18.70;70.60;;;;;;5054708;28;20609;-69
2022/05/14 13:25:26;;;;;;;5.35;0.93;;;18.70;71.90;;;;;;5065375;28;20031;-68
2022/05/14 13:27:52;;;;;;;6.80;0.88;;;18.80;67.30;;;;;;5081868;28;20031;-68